Time;durP1;ratioP1;P1;durP2;ratioP2;P2;SDS_P1;SDS_P2;PMS_P1;PMS_P2;Temp;Humidity;BMP_temperature;BMP_pressure;BME280_temperature;BME280_humidity;BME280_pressure;Samples;Min_cycle;Max_cycle;Signal;HPM_P1;HPM_P2
2022/01/05 00:01:59;;;;;;;5.40;2.70;;;;;;;6.90;84.25;96520.59;105509;1281;138283;-81
2022/01/05 00:04:26;;;;;;;5.00;2.30;;;;;;;6.88;84.77;96536.77;105440;1282;25397;-80
2022/01/05 00:06:53;;;;;;;6.40;2.70;;;;;;;6.88;84.71;96541.20;105921;1282;22561;-80
2022/01/05 00:09:20;;;;;;;7.60;3.40;;;;;;;6.86;84.97;96544.45;105728;1282;137908;-81
2022/01/05 00:11:46;;;;;;;8.80;3.40;;;;;;;6.83;85.03;96552.02;105699;1282;22571;-80
2022/01/05 00:14:16;;;;;;;7.20;2.90;;;;;;;6.81;84.80;96550.12;105719;1281;137769;-80
2022/01/05 00:16:43;;;;;;;6.30;2.80;;;;;;;6.81;84.80;96562.19;105724;1281;25272;-80
2022/01/05 00:19:10;;;;;;;5.20;3.00;;;;;;;6.79;84.96;96569.44;105838;1281;25340;-80
2022/01/05 00:21:38;;;;;;;5.70;3.40;;;;;;;6.77;85.01;96578.04;105859;1281;137353;-80
2022/01/05 00:24:05;;;;;;;7.40;3.60;;;;;;;6.73;85.15;96575.64;105813;1282;25565;-80
2022/01/05 00:26:32;;;;;;;6.90;3.90;;;;;;;6.70;85.01;96574.50;105968;1282;138046;-80
2022/01/05 00:28:59;;;;;;;6.40;3.30;;;;;;;6.68;85.33;96585.26;105834;1282;25378;-80
2022/01/05 00:31:40;;;;;;;8.00;3.80;;;;;;;6.67;85.39;96593.46;105606;1284;24257;-80
2022/01/05 00:34:08;;;;;;;8.20;4.10;;;;;;;6.66;85.59;96594.12;105737;1281;137373;-80
2022/01/05 00:36:35;;;;;;;4.80;2.90;;;;;;;6.64;85.60;96581.68;105602;1281;22571;-80
2022/01/05 00:39:03;;;;;;;5.80;3.20;;;;;;;6.62;85.47;96578.76;105601;1281;137793;-80
2022/01/05 00:41:30;;;;;;;6.00;2.80;;;;;;;6.61;85.64;96592.98;105714;1280;23144;-80
2022/01/05 00:43:57;;;;;;;4.20;2.70;;;;;;;6.60;85.83;96606.27;105474;1282;137756;-80
2022/01/05 00:46:24;;;;;;;4.60;2.40;;;;;;;6.58;85.82;96606.05;105749;1282;25266;-80
2022/01/05 00:48:51;;;;;;;5.00;2.50;;;;;;;6.57;86.13;96605.61;105742;1282;25223;-80
2022/01/05 00:51:32;;;;;;;4.70;2.30;;;;;;;6.55;86.22;96599.29;105662;1282;137993;-79
2022/01/05 00:53:59;;;;;;;3.20;2.10;;;;;;;6.56;86.09;96601.61;105702;1282;24327;-81
2022/01/05 00:56:25;;;;;;;3.50;2.10;;;;;;;6.54;86.09;96608.41;105796;1281;138264;-81
2022/01/05 00:58:52;;;;;;;3.20;2.20;;;;;;;6.53;86.31;96617.60;105933;1281;25325;-81
2022/01/05 01:01:19;;;;;;;3.20;2.10;;;;;;;6.52;86.39;96610.25;105882;1282;22667;-80
2022/01/05 01:03:47;;;;;;;3.30;2.20;;;;;;;6.51;86.44;96604.84;105749;1281;137976;-81
2022/01/05 01:06:14;;;;;;;3.30;2.20;;;;;;;6.50;86.49;96601.91;105721;1282;24234;-81
2022/01/05 01:08:41;;;;;;;3.10;2.10;;;;;;;6.53;86.89;96611.27;105688;1282;138124;-81
2022/01/05 01:11:08;;;;;;;3.00;1.90;;;;;;;6.55;86.87;96608.32;105696;1282;24437;-80
2022/01/05 01:13:35;;;;;;;3.80;2.40;;;;;;;6.54;86.75;96610.05;105629;1282;25275;-80
2022/01/05 01:16:03;;;;;;;2.90;2.40;;;;;;;6.52;87.04;96614.63;105653;1282;137487;-80
2022/01/05 01:18:29;;;;;;;3.70;2.60;;;;;;;6.49;87.02;96611.48;105810;1282;22598;-80
2022/01/05 01:20:56;;;;;;;3.60;2.70;;;;;;;6.48;86.99;96613.73;105721;1282;137992;-82
2022/01/05 01:23:24;;;;;;;4.00;2.60;;;;;;;6.48;87.16;96625.50;105858;1281;23196;-80
2022/01/05 01:25:51;;;;;;;2.80;2.50;;;;;;;6.48;87.33;96632.94;105786;1282;25263;-80
2022/01/05 01:28:20;;;;;;;5.80;3.60;;;;;;;6.45;87.23;96636.83;105650;1282;137041;-80
2022/01/05 01:31:01;;;;;;;6.50;3.80;;;;;;;6.42;87.36;96635.36;105453;1284;22620;-80
2022/01/05 01:33:28;;;;;;;4.30;3.30;;;;;;;6.40;87.11;96634.54;105542;1280;138154;-80
2022/01/05 01:35:55;;;;;;;3.80;3.20;;;;;;;6.39;87.27;96629.77;106013;1280;24399;-80
2022/01/05 01:38:22;;;;;;;3.30;2.80;;;;;;;6.39;87.29;96623.66;105668;1281;137660;-80
2022/01/05 01:40:49;;;;;;;4.10;3.10;;;;;;;6.39;87.45;96613.70;105739;1281;22581;-81
2022/01/05 01:43:17;;;;;;;5.40;4.00;;;;;;;6.38;87.42;96610.67;105874;1281;22548;-80
2022/01/05 01:45:43;;;;;;;6.40;4.60;;;;;;;6.37;87.53;96616.56;105643;1280;137793;-79
2022/01/05 01:48:12;;;;;;;9.20;6.00;;;;;;;6.37;87.58;96618.19;105580;1282;22561;-81
2022/01/05 01:50:39;;;;;;;8.70;5.80;;;;;;;6.39;87.70;96624.79;105496;1281;137958;-81
2022/01/05 01:53:06;;;;;;;7.90;5.40;;;;;;;6.41;87.62;96625.45;106049;1281;26507;-80
2022/01/05 01:55:35;;;;;;;6.00;5.30;;;;;;;6.42;87.62;96626.43;105645;1281;25281;-80
2022/01/05 01:58:04;;;;;;;7.10;6.00;;;;;;;6.39;87.43;96622.63;106057;1281;138074;-80
2022/01/05 02:00:32;;;;;;;8.00;6.00;;;;;;;6.36;87.57;96623.43;105922;1281;25332;-80
2022/01/05 02:02:59;;;;;;;8.40;6.60;;;;;;;6.35;87.64;96624.52;105789;1281;137864;-80
2022/01/05 02:05:26;;;;;;;8.50;6.90;;;;;;;6.34;87.61;96631.58;105863;1281;22582;-80
2022/01/05 02:07:53;;;;;;;9.70;7.30;;;;;;;6.32;87.58;96638.39;105852;1281;23763;-80
2022/01/05 02:10:34;;;;;;;9.40;7.10;;;;;;;6.30;87.72;96646.21;105178;1282;137722;-80
2022/01/05 02:13:04;;;;;;;8.30;6.20;;;;;;;6.30;87.74;96644.39;105730;1281;22572;-80
2022/01/05 02:15:31;;;;;;;9.90;7.00;;;;;;;6.30;87.69;96647.84;105526;1282;138159;-80
2022/01/05 02:20:42;;;;;;;11.30;7.20;;;;;;;6.29;87.69;96659.25;105706;1281;137677;-80
2022/01/05 02:23:09;;;;;;;9.50;6.50;;;;;;;6.26;87.92;96660.31;105763;1281;25282;-80
2022/01/05 02:25:36;;;;;;;7.80;5.60;;;;;;;6.24;87.65;96663.92;105662;1281;24232;-81
2022/01/05 02:28:03;;;;;;;7.20;5.50;;;;;;;6.24;87.68;96662.83;105612;1282;141549;-80
2022/01/05 02:30:31;;;;;;;7.50;6.20;;;;;;;6.24;87.67;96666.73;105681;1282;24207;-80
2022/01/05 02:32:58;;;;;;;7.70;5.40;;;;;;;6.24;87.88;96660.56;105656;1282;137771;-80
2022/01/05 02:35:26;;;;;;;6.80;5.20;;;;;;;6.23;87.76;96649.80;105733;1281;25441;-80
2022/01/05 02:37:54;;;;;;;8.90;5.10;;;;;;;6.21;87.73;96661.67;105782;1281;22556;-80
2022/01/05 02:40:35;;;;;;;6.90;5.30;;;;;;;6.22;87.84;96653.73;105684;1281;137895;-81
2022/01/05 02:43:02;;;;;;;8.40;5.70;;;;;;;6.24;87.90;96647.38;105755;1281;22706;-80
2022/01/05 02:45:29;;;;;;;6.80;5.30;;;;;;;6.27;88.03;96655.94;105712;1281;137420;-80
2022/01/05 02:47:56;;;;;;;9.40;5.80;;;;;;;6.31;88.14;96660.92;105897;1282;24324;-80
2022/01/05 02:50:23;;;;;;;7.80;5.90;;;;;;;6.32;88.07;96663.31;105728;1282;138090;-80
2022/01/05 02:53:04;;;;;;;8.90;6.30;;;;;;;6.35;88.08;96668.94;106233;1282;25178;-80
2022/01/05 02:55:31;;;;;;;10.60;7.10;;;;;;;6.37;88.12;96674.42;106070;1281;22557;-80
2022/01/05 02:57:58;;;;;;;9.00;7.40;;;;;;;6.38;88.21;96674.27;105947;1281;137838;-80
2022/01/05 03:00:24;;;;;;;10.70;7.60;;;;;;;6.40;87.91;96675.63;106135;1281;25359;-80
2022/01/05 03:02:51;;;;;;;12.70;9.10;;;;;;;6.39;88.00;96678.86;106157;1281;138234;-82
2022/01/05 03:05:19;;;;;;;12.20;8.90;;;;;;;6.37;87.92;96669.83;105982;1281;24293;-80
2022/01/05 03:08:00;;;;;;;12.10;8.90;;;;;;;6.33;87.96;96655.42;105772;1282;30640;-80
2022/01/05 03:10:27;;;;;;;14.90;8.60;;;;;;;6.34;87.95;96649.27;105766;1281;138221;-80
2022/01/05 03:12:54;;;;;;;14.80;9.10;;;;;;;6.31;88.00;96648.39;105838;1282;22597;-80
2022/01/05 03:15:22;;;;;;;12.60;9.70;;;;;;;6.32;88.02;96654.50;105979;1280;138200;-80
2022/01/05 03:17:48;;;;;;;15.20;10.60;;;;;;;6.27;87.96;96658.80;106069;1281;25385;-80
2022/01/05 03:20:20;;;;;;;15.50;10.80;;;;;;;6.23;87.82;96655.98;106270;1281;22566;-80
2022/01/05 03:22:47;;;;;;;15.50;10.50;;;;;;;6.22;87.93;96646.77;106268;1281;139502;-80
2022/01/05 03:25:19;;;;;;;15.60;10.10;;;;;;;6.22;88.19;96634.48;106074;1281;22825;-83
2022/01/05 03:27:48;;;;;;;15.80;11.00;;;;;;;6.24;88.20;96622.98;105915;1282;137740;-82
2022/01/05 03:30:21;;;;;;;14.80;11.50;;;;;;;6.25;88.25;96615.86;105899;1282;22595;-81
2022/01/05 03:35:43;;;;;;;17.60;12.10;;;;;;;6.27;87.94;96607.71;105974;1282;22564;-81
2022/01/05 03:38:11;;;;;;;14.80;10.50;;;;;;;6.28;88.08;96605.56;106193;1282;25301;-81
2022/01/05 03:40:39;;;;;;;16.80;10.60;;;;;;;6.34;88.28;96615.74;106103;1280;138141;-80
2022/01/05 03:43:20;;;;;;;17.80;11.70;;;;;;;6.37;88.34;96618.67;106109;1281;25363;-80
2022/01/05 03:45:47;;;;;;;18.40;12.80;;;;;;;6.38;88.26;96613.70;106006;1281;137857;-80
2022/01/05 03:48:18;;;;;;;18.50;12.70;;;;;;;6.40;88.13;96605.77;105995;1282;25272;-80
2022/01/05 03:50:46;;;;;;;15.60;11.50;;;;;;;6.41;87.91;96600.63;105716;1282;138613;-81
2022/01/05 03:53:13;;;;;;;16.80;11.90;;;;;;;6.43;87.76;96599.84;106047;1281;22607;-81
2022/01/05 03:55:54;;;;;;;17.70;12.80;;;;;;;6.44;87.83;96600.81;106062;1282;22571;-80
2022/01/05 03:58:21;;;;;;;17.90;12.80;;;;;;;6.42;87.63;96607.13;105948;1281;143640;-80
2022/01/05 04:00:50;;;;;;;17.50;12.20;;;;;;;6.40;87.50;96607.77;106021;1282;22566;-83
2022/01/05 04:03:31;;;;;;;18.40;11.60;;;;;;;6.38;87.45;96605.54;105942;1280;138278;-82
2022/01/05 04:05:58;;;;;;;17.90;12.30;;;;;;;6.39;87.75;96607.11;106025;1281;24288;-80
2022/01/05 04:08:25;;;;;;;18.00;12.60;;;;;;;6.39;87.65;96610.09;105825;1281;138033;-80
2022/01/05 04:10:52;;;;;;;18.90;13.20;;;;;;;6.39;87.59;96615.34;105885;1282;23130;-81
2022/01/05 04:13:32;;;;;;;17.90;12.50;;;;;;;6.38;87.47;96623.77;106034;1282;22611;-80
2022/01/05 04:15:59;;;;;;;16.30;11.30;;;;;;;6.36;87.20;96638.73;105965;1281;138221;-80
2022/01/05 04:18:26;;;;;;;17.50;10.80;;;;;;;6.34;87.27;96644.12;106270;1281;22577;-80
2022/01/05 04:20:53;;;;;;;18.20;10.80;;;;;;;6.32;87.49;96651.30;105919;1281;138256;-80
2022/01/05 04:23:20;;;;;;;20.00;12.00;;;;;;;6.29;87.26;96658.38;106007;1281;23595;-80
2022/01/05 04:25:47;;;;;;;17.00;11.30;;;;;;;6.26;87.59;96662.91;106155;1282;23350;-80
2022/01/05 04:28:14;;;;;;;15.70;10.90;;;;;;;6.28;87.64;96666.32;105656;1282;138764;-81
2022/01/05 04:30:41;;;;;;;15.30;10.20;;;;;;;6.28;87.49;96662.64;105930;1281;22553;-81
2022/01/05 04:33:08;;;;;;;14.40;9.70;;;;;;;6.28;87.51;96662.30;105891;1282;138036;-81
2022/01/05 04:35:35;;;;;;;17.70;11.30;;;;;;;6.25;87.55;96663.38;105983;1281;22570;-81
2022/01/05 04:38:16;;;;;;;13.30;9.80;;;;;;;6.26;87.53;96665.48;105720;1282;22833;-80
2022/01/05 04:40:44;;;;;;;15.50;10.00;;;;;;;6.27;87.59;96662.48;105941;1281;137993;-80
2022/01/05 04:43:25;;;;;;;16.00;10.60;;;;;;;6.28;87.61;96654.59;106042;1281;22565;-80
2022/01/05 04:45:52;;;;;;;13.00;9.40;;;;;;;6.28;87.66;96652.38;106180;1281;138206;-81
2022/01/05 04:48:20;;;;;;;14.40;10.10;;;;;;;6.26;87.38;96653.11;105890;1282;24236;-81
2022/01/05 04:50:47;;;;;;;15.60;10.20;;;;;;;6.24;87.37;96667.38;106031;1282;138758;-81
2022/01/05 04:53:14;;;;;;;16.30;9.80;;;;;;;6.22;87.41;96671.20;105956;1282;22638;-81
2022/01/05 04:55:42;;;;;;;14.50;8.70;;;;;;;6.20;87.50;96675.08;106076;1282;22700;-81
2022/01/05 04:58:09;;;;;;;14.70;9.40;;;;;;;6.19;87.28;96679.72;105971;1281;138562;-81
2022/01/05 05:00:36;;;;;;;15.10;10.70;;;;;;;6.16;87.42;96683.98;105889;1282;23088;-81
2022/01/05 05:03:03;;;;;;;15.40;9.90;;;;;;;6.15;87.56;96680.40;105820;1281;138573;-80
2022/01/05 05:05:30;;;;;;;14.00;9.40;;;;;;;6.16;87.49;96688.02;105929;1281;22761;-80
2022/01/05 05:08:01;;;;;;;14.90;9.80;;;;;;;6.15;87.32;96696.67;106322;1281;22550;-81
2022/01/05 05:10:28;;;;;;;16.60;10.30;;;;;;;6.15;87.45;96692.35;105996;1282;137715;-81
2022/01/05 05:12:55;;;;;;;18.10;11.00;;;;;;;6.14;87.32;96697.41;106009;1282;22566;-81
2022/01/05 05:15:22;;;;;;;18.00;11.20;;;;;;;6.12;87.10;96704.86;105919;1282;138615;-80
2022/01/05 05:17:48;;;;;;;17.30;11.00;;;;;;;6.10;87.33;96700.52;106166;1281;22724;-81
2022/01/05 05:20:29;;;;;;;17.60;10.80;;;;;;;6.07;87.29;96694.14;105982;1281;138084;-80
2022/01/05 05:22:56;;;;;;;18.80;11.40;;;;;;;6.07;87.60;96698.73;106145;1280;24438;-80
2022/01/05 05:25:23;;;;;;;20.10;12.50;;;;;;;6.08;87.61;96700.95;106050;1281;25517;-80
2022/01/05 05:27:50;;;;;;;16.00;11.90;;;;;;;6.07;87.52;96695.27;106073;1281;138520;-81
2022/01/05 05:30:17;;;;;;;19.10;12.20;;;;;;;6.07;87.35;96693.91;106096;1282;22595;-80
2022/01/05 05:32:44;;;;;;;19.10;12.60;;;;;;;6.05;87.35;96697.20;105838;1282;137932;-80
2022/01/05 05:35:11;;;;;;;19.20;13.10;;;;;;;6.00;87.09;96695.96;105987;1282;22559;-82
2022/01/05 05:37:38;;;;;;;20.50;12.30;;;;;;;5.96;87.24;96698.25;106160;1282;24312;-80
2022/01/05 05:40:19;;;;;;;18.50;11.50;;;;;;;5.91;87.07;96692.15;106124;1281;138488;-80
2022/01/05 05:42:45;;;;;;;20.10;12.30;;;;;;;5.83;87.05;96689.65;106369;1281;22542;-80
2022/01/05 05:45:12;;;;;;;15.90;11.20;;;;;;;5.80;87.46;96689.47;106103;1280;138489;-80
2022/01/05 05:47:39;;;;;;;19.40;11.80;;;;;;;5.83;87.98;96682.36;106044;1281;23927;-80
2022/01/05 05:50:07;;;;;;;20.10;12.40;;;;;;;5.88;88.31;96676.17;105877;1281;25274;-80
2022/01/05 05:52:48;;;;;;;20.50;12.60;;;;;;;5.91;87.96;96676.48;105861;1281;138278;-80
2022/01/05 05:55:15;;;;;;;23.90;12.80;;;;;;;5.94;88.08;96678.16;105981;1282;24385;-80
2022/01/05 05:57:43;;;;;;;19.90;13.90;;;;;;;5.97;87.98;96684.44;106011;1281;138235;-80
2022/01/05 06:00:11;;;;;;;22.30;13.70;;;;;;;6.01;87.97;96679.05;106063;1281;22622;-80
2022/01/05 06:02:38;;;;;;;22.20;13.80;;;;;;;6.03;87.73;96675.08;105886;1281;138138;-80
2022/01/05 06:05:06;;;;;;;23.10;14.90;;;;;;;6.02;87.62;96676.36;106044;1281;22824;-80
2022/01/05 06:07:34;;;;;;;23.50;12.90;;;;;;;6.03;87.66;96675.51;105973;1282;25333;-80
2022/01/05 06:10:00;;;;;;;31.60;16.80;;;;;;;6.05;87.66;96670.06;105941;1281;138594;-80
2022/01/05 06:12:27;;;;;;;29.00;16.50;;;;;;;6.05;87.56;96676.02;106069;1282;25242;-81
2022/01/05 06:14:54;;;;;;;25.60;15.40;;;;;;;6.04;87.39;96675.63;105960;1282;138710;-80
2022/01/05 06:17:21;;;;;;;23.80;14.10;;;;;;;6.02;87.28;96684.73;106008;1282;22589;-80
2022/01/05 06:19:48;;;;;;;25.10;15.30;;;;;;;6.01;87.50;96695.17;106055;1281;22550;-80
2022/01/05 06:22:17;;;;;;;24.30;16.00;;;;;;;5.99;87.24;96691.70;105990;1281;138156;-80
2022/01/05 06:24:44;;;;;;;26.80;17.70;;;;;;;5.97;87.44;96696.48;106138;1281;25511;-81
2022/01/05 06:27:12;;;;;;;28.60;18.40;;;;;;;5.96;87.52;96697.89;105900;1280;137981;-80
2022/01/05 06:29:52;;;;;;;32.70;18.70;;;;;;;5.96;87.59;96689.71;106176;1281;24119;-81
2022/01/05 06:32:19;;;;;;;23.00;14.40;;;;;;;5.93;87.35;96675.95;105751;1281;23871;-80
2022/01/05 06:34:46;;;;;;;18.70;12.10;;;;;;;5.92;87.69;96679.34;105586;1282;137889;-80
2022/01/05 06:37:27;;;;;;;20.40;12.80;;;;;;;5.95;87.67;96686.98;106046;1281;22576;-80
2022/01/05 06:39:54;;;;;;;20.70;13.40;;;;;;;5.96;87.92;96693.98;105863;1282;137929;-80
2022/01/05 06:42:21;;;;;;;21.50;14.50;;;;;;;5.97;87.70;96708.96;106149;1281;22550;-81
2022/01/05 06:44:48;;;;;;;21.60;13.10;;;;;;;5.99;87.79;96706.84;106033;1281;139001;-80
2022/01/05 06:47:15;;;;;;;22.20;12.00;;;;;;;6.03;87.75;96696.75;106089;1281;23867;-80
2022/01/05 06:49:42;;;;;;;22.80;13.50;;;;;;;6.06;87.74;96697.64;105919;1281;22699;-80
2022/01/05 06:52:23;;;;;;;25.20;15.80;;;;;;;6.08;87.68;96694.25;105909;1282;138512;-81
2022/01/05 06:54:51;;;;;;;28.90;16.40;;;;;;;6.09;87.60;96703.65;105998;1282;22566;-81
2022/01/05 06:57:19;;;;;;;23.30;14.90;;;;;;;6.10;87.55;96706.63;105849;1282;139106;-80
2022/01/05 06:59:46;;;;;;;23.20;13.80;;;;;;;6.12;87.49;96703.20;105675;1282;24341;-81
2022/01/05 07:02:13;;;;;;;26.70;16.20;;;;;;;6.13;87.41;96714.82;105885;1281;22579;-81
2022/01/05 07:04:40;;;;;;;26.60;15.60;;;;;;;6.13;87.59;96723.75;105720;1281;137878;-81
2022/01/05 07:07:08;;;;;;;36.80;19.60;;;;;;;6.13;87.55;96724.98;105807;1281;24124;-81
2022/01/05 07:09:35;;;;;;;40.60;21.30;;;;;;;6.14;87.49;96728.06;105768;1280;139048;-81
2022/01/05 07:12:02;;;;;;;34.20;19.20;;;;;;;6.13;87.18;96721.57;105886;1282;25472;-81
2022/01/05 07:14:29;;;;;;;27.60;16.30;;;;;;;6.09;87.12;96717.88;105663;1282;137991;-82
2022/01/05 07:16:56;;;;;;;20.30;12.60;;;;;;;6.06;87.34;96719.73;105567;1282;22576;-80
2022/01/05 07:19:37;;;;;;;22.60;13.80;;;;;;;5.98;87.31;96722.60;106169;1282;22741;-79
2022/01/05 07:22:04;;;;;;;26.10;16.90;;;;;;;5.95;87.56;96720.27;105698;1281;138806;-79
2022/01/05 07:24:31;;;;;;;46.30;26.20;;;;;;;5.93;87.54;96721.50;105782;1281;22711;-79
2022/01/05 07:26:58;;;;;;;30.70;17.80;;;;;;;5.92;87.87;96714.95;105698;1281;138076;-82
2022/01/05 07:29:25;;;;;;;29.50;17.10;;;;;;;5.96;88.28;96704.79;105809;1280;24108;-82
2022/01/05 07:31:52;;;;;;;28.10;17.10;;;;;;;5.98;88.07;96709.46;105821;1281;22585;-80
2022/01/05 07:34:19;;;;;;;26.50;15.70;;;;;;;6.02;88.26;96720.63;105821;1282;138347;-80
2022/01/05 07:36:46;;;;;;;55.70;26.90;;;;;;;6.07;88.30;96705.27;105940;1281;25327;-80
2022/01/05 07:39:13;;;;;;;84.70;35.50;;;;;;;6.07;87.77;96704.67;106023;1282;137860;-80
2022/01/05 07:41:40;;;;;;;69.30;31.20;;;;;;;6.05;87.66;96700.17;106265;1281;23262;-80
2022/01/05 07:44:21;;;;;;;38.30;18.50;;;;;;;6.03;88.00;96704.00;106236;1281;25278;-80
2022/01/05 07:46:48;;;;;;;26.90;14.70;;;;;;;6.02;87.94;96703.94;105350;1282;138400;-79
2022/01/05 07:49:16;;;;;;;40.50;19.20;;;;;;;6.04;88.19;96701.94;105673;1282;25359;-79
2022/01/05 07:51:43;;;;;;;26.00;14.50;;;;;;;6.07;87.98;96705.27;106039;1281;138028;-79
2022/01/05 07:54:10;;;;;;;21.50;14.00;;;;;;;6.07;88.05;96708.08;106253;1282;22669;-79
2022/01/05 07:56:37;;;;;;;22.60;14.80;;;;;;;6.08;88.16;96709.70;105835;1282;137971;-79
2022/01/05 07:59:05;;;;;;;22.80;16.50;;;;;;;6.10;88.13;96703.40;105881;1282;22553;-79
2022/01/05 08:01:32;;;;;;;26.90;16.70;;;;;;;6.12;88.17;96703.83;105912;1282;23283;-79
2022/01/05 08:03:59;;;;;;;30.40;18.20;;;;;;;6.12;88.01;96695.51;105853;1281;137704;-80
2022/01/05 08:06:26;;;;;;;25.80;15.80;;;;;;;6.11;87.95;96692.16;106031;1281;24371;-80
2022/01/05 08:08:53;;;;;;;24.70;13.10;;;;;;;6.11;87.84;96696.15;105929;1280;138758;-80
2022/01/05 08:11:20;;;;;;;30.70;15.80;;;;;;;6.11;87.83;96697.02;105940;1281;24224;-79
2022/01/05 08:13:48;;;;;;;24.80;12.70;;;;;;;6.12;87.86;96699.09;106070;1282;22591;-80
2022/01/05 08:16:15;;;;;;;29.20;14.50;;;;;;;6.14;87.73;96685.36;105979;1282;137848;-82
2022/01/05 08:18:56;;;;;;;28.10;14.70;;;;;;;6.15;87.84;96684.83;105859;1282;23936;-80
2022/01/05 08:21:23;;;;;;;28.70;14.70;;;;;;;6.15;87.95;96682.45;105777;1282;138332;-80
2022/01/05 08:23:50;;;;;;;47.10;18.80;;;;;;;6.16;87.94;96686.25;106322;1281;22563;-80
2022/01/05 08:26:17;;;;;;;33.70;15.50;;;;;;;6.17;87.60;96693.65;105794;1283;23074;-80
2022/01/05 08:28:44;;;;;;;30.70;13.80;;;;;;;6.19;87.73;96704.59;105866;1281;137925;-80
2022/01/05 08:31:12;;;;;;;15.20;9.60;;;;;;;6.19;87.80;96712.48;105865;1281;22710;-79
2022/01/05 08:33:39;;;;;;;17.30;9.90;;;;;;;6.18;87.63;96716.53;105934;1281;137671;-81
2022/01/05 08:36:06;;;;;;;17.10;9.50;;;;;;;6.18;87.53;96714.70;106143;1282;223692;-79
2022/01/05 08:38:35;;;;;;;24.50;11.40;;;;;;;6.18;87.36;96710.30;105739;1282;138166;-80
2022/01/05 08:41:02;;;;;;;21.70;10.30;;;;;;;6.18;87.29;96709.38;105804;1282;25367;-80
2022/01/05 08:43:31;;;;;;;21.80;10.60;;;;;;;6.15;87.30;96704.83;105988;1281;24375;-79
2022/01/05 08:45:58;;;;;;;;;;;;;;;6.13;87.33;96703.85;106442;1281;137755;-80
2022/01/05 08:48:25;;;;;;;31.80;14.40;;;;;;;6.10;87.05;96708.80;106119;1281;24254;-80
2022/01/05 08:50:52;;;;;;;41.20;17.40;;;;;;;6.06;87.15;96710.23;106285;1282;139433;-80
2022/01/05 08:53:19;;;;;;;17.70;10.10;;;;;;;6.07;87.40;96711.58;106602;1281;22554;-80
2022/01/05 08:55:48;;;;;;;28.80;13.10;;;;;;;6.07;87.42;96708.51;106299;1282;22584;-81
2022/01/05 08:58:17;;;;;;;29.40;13.90;;;;;;;6.08;87.59;96704.35;105968;1282;137625;-80
2022/01/05 09:00:44;;;;;;;18.50;10.00;;;;;;;6.10;87.59;96706.09;106136;1282;22567;-82
2022/01/05 09:03:14;;;;;;;15.90;8.50;;;;;;;6.13;87.59;96712.66;105884;1282;138559;-82
2022/01/05 09:05:41;;;;;;;16.80;8.60;;;;;;;6.14;87.40;96717.42;106076;1281;23069;-82
2022/01/05 09:08:09;;;;;;;17.20;8.50;;;;;;;6.14;87.25;96715.84;106022;1281;22621;-82
2022/01/05 09:10:37;;;;;;;13.90;8.00;;;;;;;6.14;87.27;96724.66;106190;1281;137626;-82
2022/01/05 09:13:05;;;;;;;13.60;10.00;;;;;;;6.12;87.38;96726.38;106206;1281;22582;-82
2022/01/05 09:15:34;;;;;;;15.20;11.50;;;;;;;6.13;87.45;96740.11;106313;1281;139168;-81
2022/01/05 09:18:01;;;;;;;18.40;11.70;;;;;;;6.13;87.27;96743.85;106118;1281;22633;-82
2022/01/05 09:20:28;;;;;;;21.90;13.00;;;;;;;6.10;87.19;96750.70;105957;1281;139489;-82
2022/01/05 09:22:56;;;;;;;23.80;16.50;;;;;;;6.06;87.15;96751.47;106161;1281;25562;-79
2022/01/05 09:25:24;;;;;;;24.60;15.60;;;;;;;6.03;87.25;96757.22;106188;1281;25386;-79
2022/01/05 09:27:52;;;;;;;21.40;14.70;;;;;;;6.01;87.16;96758.92;105818;1281;138989;-79
2022/01/05 09:30:20;;;;;;;16.90;10.90;;;;;;;5.96;87.26;96763.64;106189;1281;24315;-80
2022/01/05 09:32:48;;;;;;;15.90;11.40;;;;;;;5.91;87.14;96763.79;105685;1281;138411;-78
2022/01/05 09:35:18;;;;;;;16.80;10.40;;;;;;;5.85;87.26;96760.77;106040;1281;25402;-80
2022/01/05 09:43:16;;;;;;;16.50;10.00;;;;;;;5.77;87.44;96757.67;105879;1282;24565;-82
2022/01/05 09:46:05;;;;;;;13.10;8.20;;;;;;;5.75;87.56;96765.65;106000;1281;138540;-82
2022/01/05 09:48:51;;;;;;;12.00;8.40;;;;;;;5.73;87.56;96766.44;105737;1281;22566;-80
2022/01/05 09:51:21;;;;;;;14.80;10.80;;;;;;;5.69;87.71;96766.89;106272;1281;137585;-81
2022/01/05 09:53:49;;;;;;;10.40;7.00;;;;;;;5.65;87.55;96769.72;106212;1281;22457;-81
2022/01/05 09:56:17;;;;;;;14.40;7.40;;;;;;;5.62;87.48;96769.95;106097;1282;23058;-81
2022/01/05 09:58:44;;;;;;;12.50;7.50;;;;;;;5.58;87.34;96772.55;105972;1282;138047;-81
2022/01/05 10:01:25;;;;;;;13.50;7.80;;;;;;;5.51;87.55;96774.97;105867;1282;22722;-81
2022/01/05 10:03:52;;;;;;;9.90;6.30;;;;;;;5.45;87.26;96775.24;105889;1282;138413;-80
2022/01/05 10:06:18;;;;;;;9.90;5.90;;;;;;;5.39;86.99;96765.12;106157;1281;22551;-81
2022/01/05 10:08:45;;;;;;;7.70;5.60;;;;;;;5.36;87.25;96767.31;105900;1281;138105;-80
2022/01/05 10:11:12;;;;;;;8.30;5.40;;;;;;;5.32;87.30;96766.55;105968;1281;22563;-80
2022/01/05 10:13:39;;;;;;;8.90;5.90;;;;;;;5.27;87.23;96765.54;106007;1281;22566;-81
2022/01/05 10:16:07;;;;;;;11.40;7.60;;;;;;;5.22;87.27;96767.30;105936;1282;137774;-83
2022/01/05 10:18:40;;;;;;;11.40;8.10;;;;;;;5.17;87.34;96764.16;105671;1282;25332;-80
2022/01/05 10:21:07;;;;;;;14.70;9.00;;;;;;;5.18;87.75;96769.04;105869;1282;138885;-81
2022/01/05 10:23:45;;;;;;;11.40;9.00;;;;;;;5.20;87.98;96767.72;105955;1281;22613;-80
2022/01/05 10:26:23;;;;;;;12.40;8.20;;;;;;;5.23;88.19;96754.52;106254;1281;25501;-81
2022/01/05 10:28:53;;;;;;;15.20;9.90;;;;;;;5.25;88.28;96748.46;106004;1281;138001;-81
2022/01/05 10:31:21;;;;;;;;;;;;;;;5.29;88.71;96742.51;105978;1281;22534;-80
2022/01/05 10:33:49;;;;;;;10.20;7.10;;;;;;;5.36;88.62;96740.80;105834;1281;124983;-79
2022/01/05 10:36:17;;;;;;;15.80;8.30;;;;;;;5.42;88.66;96739.51;105774;1282;24282;-81
2022/01/05 10:38:59;;;;;;;11.10;5.30;;;;;;;5.44;88.53;96741.60;105679;1282;138062;-80
2022/01/05 10:41:30;;;;;;;8.70;5.30;;;;;;;5.45;88.32;96750.56;105763;1282;22198;-80
2022/01/05 10:44:18;;;;;;;12.10;6.30;;;;;;;5.45;88.31;96754.82;106198;1281;22560;-80
2022/01/05 10:46:47;;;;;;;10.40;6.20;;;;;;;5.44;88.12;96750.92;105831;1281;138551;-81
2022/01/05 10:49:32;;;;;;;10.80;6.30;;;;;;;5.40;87.54;96747.41;105880;1281;25528;-81
2022/01/05 10:52:23;;;;;;;13.70;7.10;;;;;;;5.34;87.47;96739.33;105954;1282;137981;-81
2022/01/05 10:54:50;;;;;;;15.50;7.60;;;;;;;5.29;87.64;96736.13;106296;1281;22716;-81
2022/01/05 10:57:18;;;;;;;14.20;7.30;;;;;;;5.27;87.82;96740.49;105813;1282;138360;-80
2022/01/05 10:59:53;;;;;;;13.80;7.10;;;;;;;5.27;87.89;96740.27;105968;1282;22570;-80
2022/01/05 11:02:31;;;;;;;11.80;7.50;;;;;;;5.29;88.16;96741.27;105943;1282;25442;-80
2022/01/05 11:05:13;;;;;;;16.40;8.50;;;;;;;5.32;88.07;96732.23;106189;1282;137525;-80
2022/01/05 11:07:42;;;;;;;17.60;8.50;;;;;;;5.32;87.87;96720.67;105905;1281;30334;-80
2022/01/05 11:10:17;;;;;;;15.80;8.80;;;;;;;5.34;88.22;96721.40;106088;1281;138075;-80
2022/01/05 11:12:53;;;;;;;15.20;8.00;;;;;;;5.41;88.34;96720.48;105977;1281;22847;-80
2022/01/05 11:15:35;;;;;;;17.00;7.80;;;;;;;5.47;88.30;96721.16;106117;1282;138057;-80
2022/01/05 11:18:21;;;;;;;13.30;7.40;;;;;;;5.53;88.06;96723.27;106086;1282;30631;-80
2022/01/05 11:21:04;;;;;;;18.70;8.80;;;;;;;5.56;87.98;96713.45;105950;1282;137647;-82
2022/01/05 11:23:32;;;;;;;19.60;10.30;;;;;;;5.59;87.99;96709.88;105632;1282;25341;-81
2022/01/05 11:26:01;;;;;;;15.70;8.90;;;;;;;5.62;87.71;96709.31;106388;1281;22656;-80
2022/01/05 11:28:29;;;;;;;14.40;7.50;;;;;;;5.66;87.75;96707.17;105889;1281;138096;-81
2022/01/05 11:30:58;;;;;;;17.50;10.10;;;;;;;5.68;87.54;96703.18;105960;1282;22609;-81
2022/01/05 11:33:25;;;;;;;15.10;7.60;;;;;;;5.69;87.68;96705.84;106030;1282;137718;-81
2022/01/05 11:35:52;;;;;;;10.40;6.10;;;;;;;5.67;87.35;96700.75;105921;1281;24308;-80
2022/01/05 11:38:20;;;;;;;10.00;5.80;;;;;;;5.65;87.13;96702.52;106099;1282;22703;-80
2022/01/05 11:40:54;;;;;;;11.20;6.10;;;;;;;5.64;87.20;96691.27;105620;1281;139056;-82